sensor_id;sensor_type;location;lat;lon;timestamp;temperature;humidity
31979;DHT22;18502;43.574;1.276;2022-11-15T06:59:55;13.80;99.90
31979;DHT22;18502;43.574;1.276;2022-11-15T07:02:21;13.80;99.90
31979;DHT22;18502;43.574;1.276;2022-11-15T07:04:46;13.80;99.90
31979;DHT22;18502;43.574;1.276;2022-11-15T07:07:12;13.70;99.90
31979;DHT22;18502;43.574;1.276;2022-11-15T07:09:38;13.80;99.90
31979;DHT22;18502;43.574;1.276;2022-11-15T07:12:04;13.80;99.90
31979;DHT22;18502;43.574;1.276;2022-11-15T07:14:29;13.80;99.90
31979;DHT22;18502;43.574;1.276;2022-11-15T07:16:55;13.80;99.90
31979;DHT22;18502;43.574;1.276;2022-11-15T07:19:20;13.80;99.90
31979;DHT22;18502;43.574;1.276;2022-11-15T07:21:46;13.80;99.90
31979;DHT22;18502;43.574;1.276;2022-11-15T07:24:12;13.80;99.90
31979;DHT22;18502;43.574;1.276;2022-11-15T07:26:37;13.80;99.90
31979;DHT22;18502;43.574;1.276;2022-11-15T07:29:03;13.80;99.90
31979;DHT22;18502;43.574;1.276;2022-11-15T07:31:29;13.90;99.90
31979;DHT22;18502;43.574;1.276;2022-11-15T07:33:54;13.90;99.90
31979;DHT22;18502;43.574;1.276;2022-11-15T07:36:20;13.90;99.90
31979;DHT22;18502;43.574;1.276;2022-11-15T07:38:46;13.90;99.90
31979;DHT22;18502;43.574;1.276;2022-11-15T07:41:11;13.90;99.90
31979;DHT22;18502;43.574;1.276;2022-11-15T07:43:37;13.90;99.90
31979;DHT22;18502;43.574;1.276;2022-11-15T07:46:07;13.90;99.90
31979;DHT22;18502;43.574;1.276;2022-11-15T07:48:35;13.90;99.90
31979;DHT22;18502;43.574;1.276;2022-11-15T07:51:01;14.00;99.90
31979;DHT22;18502;43.574;1.276;2022-11-15T07:53:27;13.90;99.90
31979;DHT22;18502;43.574;1.276;2022-11-15T07:55:52;14.00;99.90
31979;DHT22;18502;43.574;1.276;2022-11-15T07:58:19;14.00;99.90
31979;DHT22;18502;43.574;1.276;2022-11-15T08:00:45;14.00;99.90
31979;DHT22;18502;43.574;1.276;2022-11-15T08:03:15;14.00;99.90
31979;DHT22;18502;43.574;1.276;2022-11-15T08:05:43;14.00;99.90
31979;DHT22;18502;43.574;1.276;2022-11-15T08:08:14;14.10;99.90
31979;DHT22;18502;43.574;1.276;2022-11-15T08:10:40;14.10;99.90
31979;DHT22;18502;43.574;1.276;2022-11-15T08:13:08;14.10;99.90
31979;DHT22;18502;43.574;1.276;2022-11-15T08:15:35;14.20;99.90
31979;DHT22;18502;43.574;1.276;2022-11-15T08:18:06;14.20;99.90
31979;DHT22;18502;43.574;1.276;2022-11-15T08:20:34;14.30;99.90
31979;DHT22;18502;43.574;1.276;2022-11-15T08:23:01;14.30;99.90
31979;DHT22;18502;43.574;1.276;2022-11-15T08:25:28;14.40;99.90
31979;DHT22;18502;43.574;1.276;2022-11-15T08:27:56;14.40;99.90
31979;DHT22;18502;43.574;1.276;2022-11-15T08:30:23;14.40;99.90
31979;DHT22;18502;43.574;1.276;2022-11-15T08:32:49;14.60;99.90
31979;DHT22;18502;43.574;1.276;2022-11-15T08:35:16;14.60;99.90
31979;DHT22;18502;43.574;1.276;2022-11-15T08:37:41;14.80;99.90
31979;DHT22;18502;43.574;1.276;2022-11-15T08:40:08;15.10;99.90
31979;DHT22;18502;43.574;1.276;2022-11-15T08:42:33;15.10;99.90
31979;DHT22;18502;43.574;1.276;2022-11-15T08:44:59;15.00;99.90
31979;DHT22;18502;43.574;1.276;2022-11-15T08:47:25;15.00;99.90
31979;DHT22;18502;43.574;1.276;2022-11-15T08:49:50;15.00;99.90
31979;DHT22;18502;43.574;1.276;2022-11-15T08:52:16;14.90;99.90
31979;DHT22;18502;43.574;1.276;2022-11-15T08:54:42;14.90;99.90
31979;DHT22;18502;43.574;1.276;2022-11-15T08:57:07;14.90;99.90
31979;DHT22;18502;43.574;1.276;2022-11-15T08:59:38;14.90;99.90
31979;DHT22;18502;43.574;1.276;2022-11-15T09:02:04;14.90;99.90
31979;DHT22;18502;43.574;1.276;2022-11-15T09:04:30;14.90;99.90
31979;DHT22;18502;43.574;1.276;2022-11-15T09:06:56;15.00;99.90
31979;DHT22;18502;43.574;1.276;2022-11-15T09:09:21;15.00;99.90
31979;DHT22;18502;43.574;1.276;2022-11-15T09:11:47;15.20;99.90
31979;DHT22;18502;43.574;1.276;2022-11-15T09:14:14;15.20;99.90
31979;DHT22;18502;43.574;1.276;2022-11-15T09:16:39;15.40;99.90
31979;DHT22;18502;43.574;1.276;2022-11-15T09:19:05;15.70;99.90
31979;DHT22;18502;43.574;1.276;2022-11-15T09:21:32;15.80;99.90
31979;DHT22;18502;43.574;1.276;2022-11-15T09:23:58;16.20;99.90
31979;DHT22;18502;43.574;1.276;2022-11-15T09:26:23;16.50;99.90
31979;DHT22;18502;43.574;1.276;2022-11-15T09:28:49;16.20;99.90
31979;DHT22;18502;43.574;1.276;2022-11-15T09:31:15;16.10;99.90
31979;DHT22;18502;43.574;1.276;2022-11-15T09:33:43;15.90;99.90
31979;DHT22;18502;43.574;1.276;2022-11-15T09:36:10;15.70;99.90
31979;DHT22;18502;43.574;1.276;2022-11-15T09:38:36;15.70;99.90
31979;DHT22;18502;43.574;1.276;2022-11-15T09:49:07;15.80;99.90
31979;DHT22;18502;43.574;1.276;2022-11-15T09:51:40;16.10;99.90
31979;DHT22;18502;43.574;1.276;2022-11-15T09:57:14;16.20;99.90
31979;DHT22;18502;43.574;1.276;2022-11-15T10:04:50;16.50;99.90
31979;DHT22;18502;43.574;1.276;2022-11-15T10:07:44;16.80;99.90
31979;DHT22;18502;43.574;1.276;2022-11-15T10:12:45;19.00;99.90
31979;DHT22;18502;43.574;1.276;2022-11-15T10:15:15;20.90;99.90
31979;DHT22;18502;43.574;1.276;2022-11-15T10:20:25;22.40;99.90
31979;DHT22;18502;43.574;1.276;2022-11-15T10:22:55;21.60;99.90
31979;DHT22;18502;43.574;1.276;2022-11-15T10:25:25;19.30;99.90
31979;DHT22;18502;43.574;1.276;2022-11-15T10:27:56;19.90;99.90
31979;DHT22;18502;43.574;1.276;2022-11-15T10:30:22;20.70;99.90
31979;DHT22;18502;43.574;1.276;2022-11-15T10:32:48;21.50;99.90
31979;DHT22;18502;43.574;1.276;2022-11-15T10:37:43;19.20;99.90
31979;DHT22;18502;43.574;1.276;2022-11-15T10:40:21;18.70;99.90
31979;DHT22;18502;43.574;1.276;2022-11-15T10:42:47;18.90;99.90
31979;DHT22;18502;43.574;1.276;2022-11-15T10:45:28;18.50;99.90
31979;DHT22;18502;43.574;1.276;2022-11-15T10:50:44;18.30;99.90
31979;DHT22;18502;43.574;1.276;2022-11-15T10:55:47;19.70;99.90
31979;DHT22;18502;43.574;1.276;2022-11-15T10:58:31;19.30;99.90
31979;DHT22;18502;43.574;1.276;2022-11-15T11:01:18;18.40;99.90
31979;DHT22;18502;43.574;1.276;2022-11-15T11:03:57;18.10;99.90
31979;DHT22;18502;43.574;1.276;2022-11-15T11:06:26;18.30;99.90
31979;DHT22;18502;43.574;1.276;2022-11-15T11:09:00;18.70;99.90
31979;DHT22;18502;43.574;1.276;2022-11-15T11:11:49;18.80;99.90
31979;DHT22;18502;43.574;1.276;2022-11-15T11:14:26;19.40;99.90
31979;DHT22;18502;43.574;1.276;2022-11-15T11:33:17;21.70;99.90
31979;DHT22;18502;43.574;1.276;2022-11-15T11:36:02;21.10;99.90
31979;DHT22;18502;43.574;1.276;2022-11-15T11:39:05;20.30;99.90
31979;DHT22;18502;43.574;1.276;2022-11-15T11:47:01;18.70;99.90
31979;DHT22;18502;43.574;1.276;2022-11-15T11:49:48;18.70;99.90
31979;DHT22;18502;43.574;1.276;2022-11-15T11:52:22;19.00;99.90
31979;DHT22;18502;43.574;1.276;2022-11-15T12:00:33;19.10;99.90
31979;DHT22;18502;43.574;1.276;2022-11-15T12:05:59;22.60;99.90
31979;DHT22;18502;43.574;1.276;2022-11-15T12:11:14;23.20;99.90
31979;DHT22;18502;43.574;1.276;2022-11-15T12:13:42;22.90;99.90
31979;DHT22;18502;43.574;1.276;2022-11-15T12:16:14;21.50;99.90
31979;DHT22;18502;43.574;1.276;2022-11-15T12:18:46;20.60;99.90
31979;DHT22;18502;43.574;1.276;2022-11-15T12:21:28;20.00;99.90
31979;DHT22;18502;43.574;1.276;2022-11-15T12:27:07;19.50;99.90
31979;DHT22;18502;43.574;1.276;2022-11-15T12:29:40;19.70;99.90
31979;DHT22;18502;43.574;1.276;2022-11-15T12:32:27;19.90;99.90
31979;DHT22;18502;43.574;1.276;2022-11-15T12:34:54;19.90;99.90
31979;DHT22;18502;43.574;1.276;2022-11-15T12:42:42;19.30;99.90
31979;DHT22;18502;43.574;1.276;2022-11-15T12:45:27;19.00;99.90
31979;DHT22;18502;43.574;1.276;2022-11-15T12:48:20;19.10;99.90
31979;DHT22;18502;43.574;1.276;2022-11-15T12:56:18;18.80;99.90
31979;DHT22;18502;43.574;1.276;2022-11-15T12:59:00;18.70;99.90
31979;DHT22;18502;43.574;1.276;2022-11-15T13:12:04;19.20;99.90
31979;DHT22;18502;43.574;1.276;2022-11-15T13:14:51;19.70;99.90
31979;DHT22;18502;43.574;1.276;2022-11-15T13:17:25;19.60;99.90
31979;DHT22;18502;43.574;1.276;2022-11-15T13:27:58;18.70;99.90
31979;DHT22;18502;43.574;1.276;2022-11-15T13:30:29;18.80;99.90
31979;DHT22;18502;43.574;1.276;2022-11-15T13:32:55;18.80;99.90
31979;DHT22;18502;43.574;1.276;2022-11-15T13:35:28;18.80;99.90
31979;DHT22;18502;43.574;1.276;2022-11-15T13:37:55;18.80;99.90
31979;DHT22;18502;43.574;1.276;2022-11-15T13:40:25;18.70;99.90
31979;DHT22;18502;43.574;1.276;2022-11-15T13:42:53;18.40;99.90
31979;DHT22;18502;43.574;1.276;2022-11-15T13:45:19;18.30;99.90
31979;DHT22;18502;43.574;1.276;2022-11-15T13:47:51;18.50;99.90
31979;DHT22;18502;43.574;1.276;2022-11-15T13:50:18;18.40;99.90
31979;DHT22;18502;43.574;1.276;2022-11-15T13:52:46;18.20;99.90
31979;DHT22;18502;43.574;1.276;2022-11-15T13:55:17;18.00;99.90
31979;DHT22;18502;43.574;1.276;2022-11-15T13:57:46;17.90;99.90
31979;DHT22;18502;43.574;1.276;2022-11-15T14:00:36;17.80;99.90
31979;DHT22;18502;43.574;1.276;2022-11-15T14:05:42;17.90;99.90
31979;DHT22;18502;43.574;1.276;2022-11-15T14:10:45;17.90;99.90
31979;DHT22;18502;43.574;1.276;2022-11-15T14:13:30;18.00;99.90
31979;DHT22;18502;43.574;1.276;2022-11-15T14:16:19;18.00;99.90
31979;DHT22;18502;43.574;1.276;2022-11-15T14:18:49;18.20;99.90
31979;DHT22;18502;43.574;1.276;2022-11-15T14:21:15;18.30;99.90
31979;DHT22;18502;43.574;1.276;2022-11-15T14:23:41;18.20;99.90
31979;DHT22;18502;43.574;1.276;2022-11-15T14:26:32;18.20;99.90
31979;DHT22;18502;43.574;1.276;2022-11-15T14:28:57;18.20;99.90
31979;DHT22;18502;43.574;1.276;2022-11-15T14:31:43;18.00;99.90
31979;DHT22;18502;43.574;1.276;2022-11-15T14:34:11;18.00;99.90
31979;DHT22;18502;43.574;1.276;2022-11-15T14:36:37;18.10;99.90
31979;DHT22;18502;43.574;1.276;2022-11-15T14:39:02;18.00;99.90
31979;DHT22;18502;43.574;1.276;2022-11-15T14:41:35;17.90;99.90
31979;DHT22;18502;43.574;1.276;2022-11-15T14:44:04;17.70;99.90
31979;DHT22;18502;43.574;1.276;2022-11-15T14:46:30;17.40;99.90
31979;DHT22;18502;43.574;1.276;2022-11-15T14:48:56;17.20;99.90
31979;DHT22;18502;43.574;1.276;2022-11-15T14:51:22;17.10;99.90
31979;DHT22;18502;43.574;1.276;2022-11-15T14:53:48;17.10;99.90
31979;DHT22;18502;43.574;1.276;2022-11-15T14:56:15;17.20;99.90
31979;DHT22;18502;43.574;1.276;2022-11-15T14:58:42;17.30;99.90
31979;DHT22;18502;43.574;1.276;2022-11-15T15:03:39;17.20;99.90
31979;DHT22;18502;43.574;1.276;2022-11-15T15:06:05;17.20;99.90
31979;DHT22;18502;43.574;1.276;2022-11-15T15:08:30;17.10;99.90
31979;DHT22;18502;43.574;1.276;2022-11-15T15:10:56;17.00;99.90
31979;DHT22;18502;43.574;1.276;2022-11-15T15:13:23;17.00;99.90
31979;DHT22;18502;43.574;1.276;2022-11-15T15:15:51;17.00;99.90
31979;DHT22;18502;43.574;1.276;2022-11-15T15:18:17;16.90;99.90
31979;DHT22;18502;43.574;1.276;2022-11-15T15:20:44;16.90;99.90
31979;DHT22;18502;43.574;1.276;2022-11-15T15:23:18;16.90;99.90
31979;DHT22;18502;43.574;1.276;2022-11-15T15:25:45;16.90;99.90
31979;DHT22;18502;43.574;1.276;2022-11-15T15:28:12;16.90;99.90
31979;DHT22;18502;43.574;1.276;2022-11-15T15:30:38;16.80;99.90
31979;DHT22;18502;43.574;1.276;2022-11-15T15:33:04;16.80;99.90
31979;DHT22;18502;43.574;1.276;2022-11-15T15:35:33;16.80;99.90
31979;DHT22;18502;43.574;1.276;2022-11-15T15:37:58;16.80;99.90
31979;DHT22;18502;43.574;1.276;2022-11-15T15:40:27;16.80;99.90
31979;DHT22;18502;43.574;1.276;2022-11-15T15:42:53;16.70;99.90
31979;DHT22;18502;43.574;1.276;2022-11-15T15:45:19;16.70;99.90
31979;DHT22;18502;43.574;1.276;2022-11-15T15:47:45;16.70;99.90
31979;DHT22;18502;43.574;1.276;2022-11-15T15:50:23;16.60;99.90
31979;DHT22;18502;43.574;1.276;2022-11-15T15:52:54;16.60;99.90
31979;DHT22;18502;43.574;1.276;2022-11-15T15:55:21;16.70;99.90
31979;DHT22;18502;43.574;1.276;2022-11-15T15:57:47;16.60;99.90
31979;DHT22;18502;43.574;1.276;2022-11-15T16:00:14;16.70;99.90
31979;DHT22;18502;43.574;1.276;2022-11-15T16:02:40;16.70;99.90
31979;DHT22;18502;43.574;1.276;2022-11-15T16:05:07;16.70;99.90
31979;DHT22;18502;43.574;1.276;2022-11-15T16:07:33;16.60;99.90
31979;DHT22;18502;43.574;1.276;2022-11-15T16:09:59;16.50;99.90
31979;DHT22;18502;43.574;1.276;2022-11-15T16:12:25;16.40;99.90
31979;DHT22;18502;43.574;1.276;2022-11-15T16:14:51;16.40;99.90
31979;DHT22;18502;43.574;1.276;2022-11-15T16:17:19;16.30;99.90
31979;DHT22;18502;43.574;1.276;2022-11-15T16:19:46;16.20;99.90
31979;DHT22;18502;43.574;1.276;2022-11-15T16:22:12;16.00;99.90
31979;DHT22;18502;43.574;1.276;2022-11-15T16:24:38;15.80;99.90
31979;DHT22;18502;43.574;1.276;2022-11-15T16:27:03;15.80;99.90
31979;DHT22;18502;43.574;1.276;2022-11-15T16:29:29;15.70;99.90
31979;DHT22;18502;43.574;1.276;2022-11-15T16:31:55;15.60;99.90
31979;DHT22;18502;43.574;1.276;2022-11-15T16:34:21;15.60;99.90
31979;DHT22;18502;43.574;1.276;2022-11-15T16:36:47;15.60;99.90
31979;DHT22;18502;43.574;1.276;2022-11-15T16:39:13;15.50;99.90
31979;DHT22;18502;43.574;1.276;2022-11-15T16:41:41;15.50;99.90
31979;DHT22;18502;43.574;1.276;2022-11-15T16:44:08;15.40;99.90
31979;DHT22;18502;43.574;1.276;2022-11-15T16:46:34;15.40;99.90
31979;DHT22;18502;43.574;1.276;2022-11-15T16:49:00;15.50;99.90
31979;DHT22;18502;43.574;1.276;2022-11-15T16:51:25;15.60;99.90
31979;DHT22;18502;43.574;1.276;2022-11-15T16:53:51;15.60;99.90
31979;DHT22;18502;43.574;1.276;2022-11-15T16:56:29;15.60;99.90
31979;DHT22;18502;43.574;1.276;2022-11-15T16:58:57;15.50;99.90
31979;DHT22;18502;43.574;1.276;2022-11-15T17:01:27;15.40;99.90
31979;DHT22;18502;43.574;1.276;2022-11-15T17:03:54;15.40;99.90
31979;DHT22;18502;43.574;1.276;2022-11-15T17:06:20;15.50;99.90
31979;DHT22;18502;43.574;1.276;2022-11-15T17:08:47;15.50;99.90
31979;DHT22;18502;43.574;1.276;2022-11-15T17:11:20;15.50;99.90
31979;DHT22;18502;43.574;1.276;2022-11-15T17:13:46;15.50;99.90
31979;DHT22;18502;43.574;1.276;2022-11-15T17:16:15;15.50;99.90
31979;DHT22;18502;43.574;1.276;2022-11-15T17:18:42;15.50;99.90
31979;DHT22;18502;43.574;1.276;2022-11-15T17:21:15;15.40;99.90
31979;DHT22;18502;43.574;1.276;2022-11-15T17:23:41;15.30;99.90
31979;DHT22;18502;43.574;1.276;2022-11-15T17:26:09;15.20;99.90
31979;DHT22;18502;43.574;1.276;2022-11-15T17:28:36;15.20;99.90
31979;DHT22;18502;43.574;1.276;2022-11-15T17:31:08;15.10;99.90
31979;DHT22;18502;43.574;1.276;2022-11-15T17:33:35;15.00;99.90
31979;DHT22;18502;43.574;1.276;2022-11-15T17:36:03;14.90;99.90
31979;DHT22;18502;43.574;1.276;2022-11-15T17:38:30;14.90;99.90
31979;DHT22;18502;43.574;1.276;2022-11-15T17:41:07;14.80;99.90
31979;DHT22;18502;43.574;1.276;2022-11-15T17:43:35;14.70;99.90
31979;DHT22;18502;43.574;1.276;2022-11-15T17:46:06;14.60;99.90
31979;DHT22;18502;43.574;1.276;2022-11-15T17:48:32;14.40;99.90
31979;DHT22;18502;43.574;1.276;2022-11-15T17:51:03;14.20;99.90
31979;DHT22;18502;43.574;1.276;2022-11-15T17:53:37;14.20;99.90
31979;DHT22;18502;43.574;1.276;2022-11-15T17:56:08;14.30;99.90
31979;DHT22;18502;43.574;1.276;2022-11-15T17:58:35;14.50;99.90
31979;DHT22;18502;43.574;1.276;2022-11-15T18:01:08;14.70;99.90
31979;DHT22;18502;43.574;1.276;2022-11-15T18:03:35;14.80;99.90
31979;DHT22;18502;43.574;1.276;2022-11-15T18:06:05;14.90;99.90
31979;DHT22;18502;43.574;1.276;2022-11-15T18:08:32;15.00;99.90
31979;DHT22;18502;43.574;1.276;2022-11-15T18:13:30;15.00;99.90
31979;DHT22;18502;43.574;1.276;2022-11-15T18:15:56;14.90;99.90
31979;DHT22;18502;43.574;1.276;2022-11-15T18:18:27;14.80;99.90
31979;DHT22;18502;43.574;1.276;2022-11-15T18:23:29;14.70;99.90
31979;DHT22;18502;43.574;1.276;2022-11-15T18:25:54;14.70;99.90
31979;DHT22;18502;43.574;1.276;2022-11-15T18:28:20;14.80;99.90
31979;DHT22;18502;43.574;1.276;2022-11-15T18:30:46;14.80;99.90
31979;DHT22;18502;43.574;1.276;2022-11-15T18:33:12;14.80;99.90
31979;DHT22;18502;43.574;1.276;2022-11-15T18:35:38;14.70;99.90
31979;DHT22;18502;43.574;1.276;2022-11-15T18:38:04;14.70;99.90
31979;DHT22;18502;43.574;1.276;2022-11-15T18:40:29;14.80;99.90
31979;DHT22;18502;43.574;1.276;2022-11-15T18:42:55;14.80;99.90
31979;DHT22;18502;43.574;1.276;2022-11-15T18:45:21;14.80;99.90
31979;DHT22;18502;43.574;1.276;2022-11-15T18:47:46;14.80;99.90
31979;DHT22;18502;43.574;1.276;2022-11-15T18:50:12;14.80;99.90
31979;DHT22;18502;43.574;1.276;2022-11-15T18:52:37;14.80;99.90
31979;DHT22;18502;43.574;1.276;2022-11-15T18:55:03;14.70;99.90
31979;DHT22;18502;43.574;1.276;2022-11-15T18:57:29;14.60;99.90
31979;DHT22;18502;43.574;1.276;2022-11-15T18:59:55;14.40;99.90
31979;DHT22;18502;43.574;1.276;2022-11-15T19:02:21;14.40;99.90
31979;DHT22;18502;43.574;1.276;2022-11-15T19:04:46;14.60;99.90
31979;DHT22;18502;43.574;1.276;2022-11-15T19:07:12;14.60;99.90
31979;DHT22;18502;43.574;1.276;2022-11-15T19:09:38;14.70;99.90
31979;DHT22;18502;43.574;1.276;2022-11-15T19:12:04;14.60;99.90
31979;DHT22;18502;43.574;1.276;2022-11-15T19:14:29;14.60;99.90
31979;DHT22;18502;43.574;1.276;2022-11-15T19:16:55;14.60;99.90
31979;DHT22;18502;43.574;1.276;2022-11-15T19:19:23;14.70;99.90
31979;DHT22;18502;43.574;1.276;2022-11-15T19:21:50;14.50;99.90
31979;DHT22;18502;43.574;1.276;2022-11-15T19:24:16;14.50;99.90
31979;DHT22;18502;43.574;1.276;2022-11-15T19:26:42;14.40;99.90
31979;DHT22;18502;43.574;1.276;2022-11-15T19:29:09;14.40;99.90
31979;DHT22;18502;43.574;1.276;2022-11-15T19:31:35;13.90;99.90
31979;DHT22;18502;43.574;1.276;2022-11-15T19:34:04;13.80;99.90
31979;DHT22;18502;43.574;1.276;2022-11-15T19:36:41;13.60;99.90
31979;DHT22;18502;43.574;1.276;2022-11-15T19:39:09;13.50;99.90
31979;DHT22;18502;43.574;1.276;2022-11-15T19:41:38;13.50;99.90
31979;DHT22;18502;43.574;1.276;2022-11-15T19:44:06;13.30;99.90
31979;DHT22;18502;43.574;1.276;2022-11-15T19:46:32;13.40;99.90
31979;DHT22;18502;43.574;1.276;2022-11-15T19:48:58;13.30;99.90
31979;DHT22;18502;43.574;1.276;2022-11-15T19:51:26;13.30;99.90
31979;DHT22;18502;43.574;1.276;2022-11-15T19:53:55;13.20;99.90
31979;DHT22;18502;43.574;1.276;2022-11-15T19:56:22;13.10;99.90
31979;DHT22;18502;43.574;1.276;2022-11-15T19:58:52;13.10;99.90
31979;DHT22;18502;43.574;1.276;2022-11-15T20:01:36;13.00;99.90
31979;DHT22;18502;43.574;1.276;2022-11-15T20:04:04;12.90;99.90
31979;DHT22;18502;43.574;1.276;2022-11-15T20:06:35;13.00;99.90
31979;DHT22;18502;43.574;1.276;2022-11-15T20:09:01;12.90;99.90
31979;DHT22;18502;43.574;1.276;2022-11-15T20:11:27;12.80;99.90
31979;DHT22;18502;43.574;1.276;2022-11-15T20:13:59;12.90;99.90
31979;DHT22;18502;43.574;1.276;2022-11-15T20:16:29;13.00;99.90
31979;DHT22;18502;43.574;1.276;2022-11-15T20:18:55;12.80;99.90
31979;DHT22;18502;43.574;1.276;2022-11-15T20:21:20;12.90;99.90
31979;DHT22;18502;43.574;1.276;2022-11-15T20:23:46;12.90;99.90
31979;DHT22;18502;43.574;1.276;2022-11-15T20:26:12;12.80;99.90
31979;DHT22;18502;43.574;1.276;2022-11-15T20:28:39;12.80;99.90
31979;DHT22;18502;43.574;1.276;2022-11-15T20:31:05;12.80;99.90
31979;DHT22;18502;43.574;1.276;2022-11-15T20:33:31;12.80;99.90
31979;DHT22;18502;43.574;1.276;2022-11-15T20:35:57;12.90;99.90
31979;DHT22;18502;43.574;1.276;2022-11-15T20:38:26;12.90;99.90
31979;DHT22;18502;43.574;1.276;2022-11-15T20:40:52;12.90;99.90
31979;DHT22;18502;43.574;1.276;2022-11-15T20:43:19;13.00;99.90
31979;DHT22;18502;43.574;1.276;2022-11-15T20:45:47;12.90;99.90
31979;DHT22;18502;43.574;1.276;2022-11-15T20:48:13;12.90;99.90
31979;DHT22;18502;43.574;1.276;2022-11-15T20:50:40;12.90;99.90
31979;DHT22;18502;43.574;1.276;2022-11-15T20:53:06;12.80;99.90
31979;DHT22;18502;43.574;1.276;2022-11-15T20:55:32;12.90;99.90
31979;DHT22;18502;43.574;1.276;2022-11-15T20:57:58;12.80;99.90
31979;DHT22;18502;43.574;1.276;2022-11-15T21:00:24;12.90;99.90
31979;DHT22;18502;43.574;1.276;2022-11-15T21:02:51;12.80;99.90
31979;DHT22;18502;43.574;1.276;2022-11-15T21:05:17;12.80;99.90
31979;DHT22;18502;43.574;1.276;2022-11-15T21:07:43;12.80;99.90
31979;DHT22;18502;43.574;1.276;2022-11-15T21:10:09;12.80;99.90
31979;DHT22;18502;43.574;1.276;2022-11-15T21:12:53;12.80;99.90
31979;DHT22;18502;43.574;1.276;2022-11-15T21:15:19;12.70;99.90
31979;DHT22;18502;43.574;1.276;2022-11-15T21:17:45;12.70;99.90
31979;DHT22;18502;43.574;1.276;2022-11-15T21:20:11;12.80;99.90
31979;DHT22;18502;43.574;1.276;2022-11-15T21:22:37;12.80;99.90
31979;DHT22;18502;43.574;1.276;2022-11-15T21:25:03;12.80;99.90
31979;DHT22;18502;43.574;1.276;2022-11-15T21:27:29;12.80;99.90
31979;DHT22;18502;43.574;1.276;2022-11-15T21:29:55;12.70;99.90
31979;DHT22;18502;43.574;1.276;2022-11-15T21:32:20;12.70;99.90
31979;DHT22;18502;43.574;1.276;2022-11-15T21:34:46;12.80;99.90
31979;DHT22;18502;43.574;1.276;2022-11-15T21:37:11;12.80;99.90
31979;DHT22;18502;43.574;1.276;2022-11-15T21:39:37;12.80;99.90
31979;DHT22;18502;43.574;1.276;2022-11-15T21:42:03;12.80;99.90
31979;DHT22;18502;43.574;1.276;2022-11-15T21:44:29;12.70;99.90
31979;DHT22;18502;43.574;1.276;2022-11-15T21:46:55;12.70;99.90
31979;DHT22;18502;43.574;1.276;2022-11-15T21:49:20;12.70;99.90
31979;DHT22;18502;43.574;1.276;2022-11-15T21:51:47;12.70;99.90
31979;DHT22;18502;43.574;1.276;2022-11-15T21:54:13;12.70;99.90
31979;DHT22;18502;43.574;1.276;2022-11-15T21:56:38;12.60;99.90
31979;DHT22;18502;43.574;1.276;2022-11-15T21:59:04;12.60;99.90
31979;DHT22;18502;43.574;1.276;2022-11-15T22:01:30;12.50;99.90
31979;DHT22;18502;43.574;1.276;2022-11-15T22:04:14;12.50;99.90
31979;DHT22;18502;43.574;1.276;2022-11-15T22:06:40;12.60;99.90
31979;DHT22;18502;43.574;1.276;2022-11-15T22:09:06;12.50;99.90
31979;DHT22;18502;43.574;1.276;2022-11-15T22:11:32;12.50;99.90
31979;DHT22;18502;43.574;1.276;2022-11-15T22:13:58;12.50;99.90
31979;DHT22;18502;43.574;1.276;2022-11-15T22:16:24;12.50;99.90
31979;DHT22;18502;43.574;1.276;2022-11-15T22:18:50;12.50;99.90
31979;DHT22;18502;43.574;1.276;2022-11-15T22:21:17;12.40;99.90
31979;DHT22;18502;43.574;1.276;2022-11-15T22:23:43;12.50;99.90
